Terminal Aerodrome Forecast
Issued by NWS

Home | Current Version | Previous Version | Text Only | Print | Product List | Glossary On
Versions: 1 2 3 4 5 6 7 8 9 10 11 12 13 14 15 16 17
264
FTUS44 KLZK 200033 CCA
TAFHRO
TAF COR
KHRO 200033Z 2000/2024 14009KT P6SM SKC
     FM200900 15010KT P6SM SCT025 OVC050
      TEMPO 2009/2013 5SM BR BKN025
     FM201300 16008G16KT P6SM VCSH OVC025 PROB30 2015/2021 4SM -SHRA
      BR OVC012=

USA.gov is the U.S. government's official web portal to all federal, state and local government web resources and services.